»·PEaware :: N679HB L88-KSBP

N679HB :: L88-KSBP

FLIGHT INFORMATION

Flight Status: Arrived
Operator: Privately registered:
United States
More flights under this callsign
Pilot: Henrik G. (22897)
Aircraft: AERMACCHI WARRIOR
(F260)
More flights by this aircraft type
Origin: L88 New Cuyama
United States
Destination: KSBP San Luis Co Regl
United States
More flights between these airports :: More routes between these airports
Route:
File this flight plan on PilotEdge
Remarks:
Altitude:
(Current/Filed)
4,500ft
Speed:
(Current/Filed)
140kts
Departed: 09-Jan-19 12:41 PM
Arrived: 09-Jan-19 01:24 PM
Distance/Time
Traveled:
50nm/0:43
Distance/Time
To Go:
Arrived

Flight Plot

Page will automatically refresh every two minutes.


Map Options




Map Legend


Flown Route
Filed Route
Departure Airport
Arrival Airport
Navaid (VOR, NDB)
Fix

Horizontal Profiles

Position Reports

Time Latitude Longitude Heading Altitude Ground
Speed
09-Jan-19 12:36 34.943911 -119.690803 200 2166ft 1kts
09-Jan-19 12:37 34.942573 -119.691060 127 2166ft 2kts
09-Jan-19 12:38 34.941624 -119.688993 115 2166ft 5kts
09-Jan-19 12:39 34.938563 -119.681761 127 2166ft 25kts
09-Jan-19 12:40 34.939663 -119.684635 298 2166ft 89kts
09-Jan-19 12:41 34.955266 -119.719813 291 3300ft 127kts
09-Jan-19 12:42 34.971319 -119.759741 295 4465ft 142kts
09-Jan-19 12:43 34.996853 -119.797290 310 4560ft 147kts
09-Jan-19 12:44 35.021451 -119.836626 306 4484ft 146kts
09-Jan-19 12:45 35.042439 -119.877101 290 4538ft 138kts
09-Jan-19 12:46 35.057099 -119.920986 290 4438ft 139kts
09-Jan-19 12:47 35.072055 -119.962847 289 4511ft 135kts
09-Jan-19 12:48 35.088559 -120.004722 293 4445ft 139kts
09-Jan-19 12:49 35.111068 -120.042193 312 4446ft 138kts
09-Jan-19 12:50 35.137065 -120.071156 311 4570ft 134kts
09-Jan-19 12:51 35.161476 -120.107073 305 4468ft 142kts
09-Jan-19 12:52 35.187903 -120.142187 309 4458ft 138kts
09-Jan-19 12:53 35.213145 -120.176558 305 4535ft 136kts
09-Jan-19 12:54 35.237369 -120.212351 306 4535ft 137kts
09-Jan-19 12:55 35.262611 -120.248143 308 4505ft 139kts
09-Jan-19 12:56 35.290366 -120.281054 313 4495ft 139kts
09-Jan-19 12:57 35.318528 -120.311251 314 4478ft 140kts
09-Jan-19 12:58 35.350522 -120.338328 328 4452ft 142kts
09-Jan-19 12:59 35.384556 -120.362678 324 4409ft 144kts
09-Jan-19 13:00 35.421861 -120.378531 357 4388ft 146kts
09-Jan-19 13:01 35.461830 -120.373884 3 4430ft 145kts
09-Jan-19 13:02 35.501289 -120.373016 354 4453ft 145kts
09-Jan-19 13:03 35.508692 -120.406439 219 4477ft 118kts
09-Jan-19 13:04 35.475224 -120.402649 171 4484ft 128kts
09-Jan-19 13:05 35.440504 -120.392211 166 4524ft 129kts
09-Jan-19 13:06 35.406439 -120.378764 173 4515ft 131kts
09-Jan-19 13:07 35.370057 -120.372750 167 4431ft 131kts
09-Jan-19 13:08 35.335562 -120.356913 160 4426ft 128kts
09-Jan-19 13:09 35.304400 -120.335124 148 4476ft 131kts
09-Jan-19 13:10 35.273535 -120.312400 160 4547ft 128kts
09-Jan-19 13:11 35.240911 -120.295118 163 4528ft 133kts
09-Jan-19 13:12 35.205476 -120.282086 171 4448ft 132kts
09-Jan-19 13:14 35.169312 -120.278385 190 4374ft 131kts
09-Jan-19 13:15 35.163042 -120.312997 255 4504ft 124kts
09-Jan-19 13:16 35.164627 -120.355773 282 4518ft 134kts
09-Jan-19 13:17 35.175271 -120.400298 281 4430ft 138kts
09-Jan-19 13:18 35.184867 -120.445469 278 4380ft 135kts
09-Jan-19 13:19 35.190872 -120.489764 276 4076ft 148kts
09-Jan-19 13:20 35.194025 -120.539387 273 3423ft 154kts
09-Jan-19 13:21 35.214099 -120.581533 304 2209ft 117kts
09-Jan-19 13:22 35.227348 -120.618488 291 717ft 132kts
09-Jan-19 13:23 35.238477 -120.642863 303 179ft 58kts
09-Jan-19 13:24 35.241526 -120.646615 52 179ft 4kts
09-Jan-19 13:25 35.239526 -120.642474 80 179ft 12kts
09-Jan-19 13:26 35.239994 -120.642040 23 179ft 0kts
09-Jan-19 13:27 35.239994 -120.642040 23 179ft 0kts
09-Jan-19 13:28 35.239994 -120.642040 23 179ft 0kts
09-Jan-19 13:29 35.239994 -120.642040 23 179ft 0kts
09-Jan-19 13:30 35.239994 -120.642040 23 179ft 0kts
09-Jan-19 13:31 35.239994 -120.642040 23 179ft 0kts
09-Jan-19 13:32 35.239994 -120.642040 23 179ft 0kts
09-Jan-19 13:32 35.239994 -120.642040 23 179ft 0kts

Navigation Log

Ident Type
Flight plan parsing failed, navigation log unavailable